Time;durP1;ratioP1;P1;durP2;ratioP2;P2;SDS_P1;SDS_P2;PMS_P1;PMS_P2;Temp;Humidity;BMP_temperature;BMP_pressure;BME280_temperature;BME280_humidity;BME280_pressure;Samples;Min_cycle;Max_cycle;Signal;HPM_P1;HPM_P2
2020/12/27 00:01:20;;;;;;;31.60;20.83;;;-1.10;92.20;;;;;;5014122;28;20373;-81
2020/12/27 00:03:48;;;;;;;37.50;21.37;;;-1.00;92.30;;;;;;5030956;28;20195;-81
2020/12/27 00:06:15;;;;;;;35.37;20.07;;;-1.10;92.30;;;;;;5023719;28;20198;-80
2020/12/27 00:08:43;;;;;;;34.00;20.40;;;-1.10;92.30;;;;;;5019447;28;20222;-79
2020/12/27 00:11:16;;;;;;;36.93;21.37;;;-1.10;92.30;;;;;;5017305;28;20257;-80
2020/12/27 00:13:43;;;;;;;36.77;20.93;;;-1.20;92.30;;;;;;5021529;28;20206;-81
2020/12/27 00:16:11;;;;;;;32.97;20.83;;;-1.10;92.20;;;;;;5017470;28;20214;-80
2020/12/27 00:18:39;;;;;;;37.53;20.17;;;-1.20;92.20;;;;;;5025510;28;20309;-80
2020/12/27 00:21:11;;;;;;;33.53;19.30;;;-1.20;92.30;;;;;;5032092;28;20638;-82
2020/12/27 00:23:39;;;;;;;32.60;19.50;;;-1.30;92.10;;;;;;5028721;28;20210;-80
2020/12/27 00:26:10;;;;;;;29.80;19.23;;;-1.30;92.20;;;;;;5023438;28;20199;-80
2020/12/27 00:28:39;;;;;;;36.83;20.37;;;-1.30;92.20;;;;;;5024050;28;20290;-83
2020/12/27 00:31:07;;;;;;;33.10;20.00;;;-1.30;92.20;;;;;;5024864;28;20479;-81
2020/12/27 00:33:34;;;;;;;33.90;19.40;;;-1.30;92.10;;;;;;5026396;28;20202;-81
2020/12/27 00:36:02;;;;;;;32.53;19.27;;;-1.10;92.20;;;;;;5024925;28;20608;-79
2020/12/27 00:38:30;;;;;;;31.13;18.97;;;-1.30;92.10;;;;;;5027704;28;20219;-79
2020/12/27 00:40:58;;;;;;;29.73;18.60;;;-1.30;92.10;;;;;;5043116;28;20183;-81
2020/12/27 00:43:25;;;;;;;29.33;17.53;;;-1.30;92.10;;;;;;5033217;28;20732;-82
2020/12/27 00:45:54;;;;;;;29.53;18.23;;;-1.30;92.10;;;;;;5023262;28;20670;-81
2020/12/27 00:48:22;;;;;;;32.30;18.10;;;-1.30;92.10;;;;;;5022242;28;20199;-81
2020/12/27 00:50:49;;;;;;;27.87;18.20;;;-1.30;92.00;;;;;;5024236;28;20285;-81
2020/12/27 00:53:17;;;;;;;28.60;17.93;;;-1.30;92.00;;;;;;5022469;28;20309;-82
2020/12/27 00:55:44;;;;;;;26.37;17.07;;;-1.30;92.00;;;;;;5017744;28;20519;-82
2020/12/27 00:58:12;;;;;;;30.70;18.10;;;-1.30;92.00;;;;;;5003839;28;20199;-81
2020/12/27 01:00:39;;;;;;;26.80;17.00;;;-1.30;91.90;;;;;;5023577;28;20199;-81
2020/12/27 01:03:08;;;;;;;27.70;17.43;;;-1.30;91.90;;;;;;5030904;28;20191;-82
2020/12/27 01:05:35;;;;;;;29.70;17.47;;;-1.30;91.90;;;;;;5022222;28;20264;-79
2020/12/27 01:08:03;;;;;;;24.40;16.73;;;-1.20;91.90;;;;;;5023333;28;20203;-80
2020/12/27 01:10:30;;;;;;;28.87;16.50;;;-1.20;91.90;;;;;;5018201;28;20203;-78
2020/12/27 01:12:58;;;;;;;27.33;17.13;;;-1.20;91.80;;;;;;5025781;28;20226;-81
2020/12/27 01:15:25;;;;;;;25.37;15.47;;;-1.20;91.70;;;;;;5039568;28;20226;-81
2020/12/27 01:17:53;;;;;;;27.93;15.60;;;-1.10;91.70;;;;;;5047947;28;20174;-81
2020/12/27 01:20:21;;;;;;;28.03;15.50;;;-1.10;91.60;;;;;;5036242;28;20296;-82
2020/12/27 01:22:49;;;;;;;30.10;16.03;;;-1.20;91.60;;;;;;5022381;28;20207;-80
2020/12/27 01:25:16;;;;;;;28.20;16.47;;;-1.20;91.50;;;;;;5021355;28;20203;-84
2020/12/27 01:27:45;;;;;;;24.23;14.73;;;-1.20;91.40;;;;;;5021291;28;20195;-80
2020/12/27 01:30:13;;;;;;;24.27;14.87;;;-1.30;91.40;;;;;;5006514;28;20205;-81
2020/12/27 01:32:42;;;;;;;25.97;15.53;;;-1.30;91.40;;;;;;5020902;28;20505;-82
2020/12/27 01:35:11;;;;;;;27.30;15.43;;;-1.30;91.40;;;;;;5023634;28;20309;-82
2020/12/27 01:37:40;;;;;;;27.90;15.80;;;-1.30;91.50;;;;;;5027059;28;20211;-82
2020/12/27 01:40:08;;;;;;;28.97;15.60;;;-1.30;91.40;;;;;;5033109;28;20207;-81
2020/12/27 01:42:36;;;;;;;24.87;16.10;;;-1.40;91.40;;;;;;5028993;28;20913;-82
2020/12/27 01:45:05;;;;;;;26.63;16.40;;;-1.40;91.50;;;;;;5020526;28;20222;-81
2020/12/27 01:47:34;;;;;;;30.77;16.30;;;-1.30;91.40;;;;;;5030727;28;20224;-82
2020/12/27 01:50:04;;;;;;;24.57;15.13;;;-1.20;91.40;;;;;;5021650;28;20432;-80
2020/12/27 01:52:31;;;;;;;26.20;15.73;;;-1.40;91.30;;;;;;5019134;28;20837;-82
2020/12/27 01:54:59;;;;;;;27.90;16.87;;;-1.40;91.30;;;;;;5021931;28;20226;-81
2020/12/27 01:57:46;;;;;;;27.30;15.13;;;-1.40;91.30;;;;;;5020885;28;20199;-80
2020/12/27 02:00:13;;;;;;;28.30;15.90;;;-1.50;91.40;;;;;;5008766;28;20198;-82
2020/12/27 02:02:42;;;;;;;29.10;16.60;;;-1.40;91.30;;;;;;5029865;28;20513;-83
2020/12/27 02:05:09;;;;;;;26.03;15.93;;;-1.50;91.20;;;;;;5044588;28;20179;-80
2020/12/27 02:07:37;;;;;;;22.87;14.30;;;-1.40;91.30;;;;;;5026121;28;20191;-81
2020/12/27 02:10:06;;;;;;;27.77;16.47;;;-1.60;91.20;;;;;;5030723;28;20203;-82
2020/12/27 02:12:34;;;;;;;28.57;15.87;;;-1.60;91.30;;;;;;5041002;28;20458;-83
2020/12/27 02:15:01;;;;;;;27.33;15.63;;;-1.50;91.30;;;;;;5045778;28;20202;-80
2020/12/27 02:17:29;;;;;;;26.47;15.77;;;-1.50;91.30;;;;;;5050533;28;20193;-82
2020/12/27 02:19:56;;;;;;;25.37;15.27;;;-1.50;91.40;;;;;;5039535;28;20520;-82
2020/12/27 02:22:24;;;;;;;22.90;14.63;;;-1.40;91.30;;;;;;5024910;28;20611;-81
2020/12/27 02:24:52;;;;;;;24.57;15.23;;;-1.40;91.20;;;;;;5040708;28;20183;-82
2020/12/27 02:27:19;;;;;;;23.67;15.90;;;-1.40;91.10;;;;;;5037060;28;20199;-83
2020/12/27 02:29:48;;;;;;;23.30;14.37;;;-1.50;91.10;;;;;;5045564;28;20183;-80
2020/12/27 02:32:15;;;;;;;24.93;15.17;;;-1.40;91.00;;;;;;5038144;28;20741;-81
2020/12/27 02:34:43;;;;;;;25.17;14.77;;;-1.40;91.00;;;;;;5020569;28;20727;-81
2020/12/27 02:37:10;;;;;;;27.10;15.03;;;-1.40;91.00;;;;;;5019493;28;20207;-80
2020/12/27 02:39:38;;;;;;;23.80;14.50;;;-1.40;90.90;;;;;;5018124;28;20202;-79
2020/12/27 02:42:06;;;;;;;28.57;14.97;;;-1.30;90.80;;;;;;5041659;28;20218;-83
2020/12/27 02:47:06;;;;;;;25.80;14.27;;;-1.50;90.80;;;;;;5035548;28;20281;-82
2020/12/27 02:49:33;;;;;;;21.57;13.90;;;-1.40;90.80;;;;;;5017241;28;20891;-81
2020/12/27 02:52:01;;;;;;;23.47;14.00;;;-1.60;90.70;;;;;;5017007;28;20197;-81
2020/12/27 02:54:28;;;;;;;21.83;13.63;;;-1.50;90.70;;;;;;5019565;28;20219;-81
2020/12/27 02:56:55;;;;;;;25.40;13.20;;;-1.40;90.60;;;;;;5020460;28;20199;-81
2020/12/27 02:59:24;;;;;;;21.73;13.40;;;-1.50;90.60;;;;;;5033773;28;20712;-81
2020/12/27 03:01:51;;;;;;;16.40;10.87;;;-1.50;90.60;;;;;;5023046;28;20195;-81
2020/12/27 03:04:19;;;;;;;24.27;13.93;;;-1.50;90.60;;;;;;5019643;28;20203;-79
2020/12/27 03:06:47;;;;;;;23.13;13.60;;;-1.50;90.60;;;;;;5021171;28;20288;-80
2020/12/27 03:09:15;;;;;;;22.60;12.80;;;-1.50;90.50;;;;;;5019542;28;20227;-81
2020/12/27 03:11:42;;;;;;;22.63;12.40;;;-1.50;90.50;;;;;;5018104;28;20598;-79
2020/12/27 03:14:11;;;;;;;19.70;12.27;;;-1.50;90.40;;;;;;5020463;28;20203;-79
2020/12/27 03:16:40;;;;;;;21.87;12.47;;;-1.50;90.40;;;;;;5016333;28;20206;-80
2020/12/27 03:19:07;;;;;;;22.33;12.90;;;-1.50;90.30;;;;;;5027658;28;20249;-80
2020/12/27 03:21:35;;;;;;;22.93;12.53;;;-1.50;90.30;;;;;;5015646;28;20206;-80
2020/12/27 03:24:02;;;;;;;25.27;12.53;;;-1.50;90.30;;;;;;5020109;28;20213;-80
2020/12/27 03:26:30;;;;;;;21.50;12.70;;;-1.50;90.30;;;;;;5023386;28;20281;-82
2020/12/27 03:28:57;;;;;;;21.43;12.90;;;-1.60;90.30;;;;;;5021504;28;20284;-81
2020/12/27 03:31:27;;;;;;;21.57;12.40;;;-1.70;90.30;;;;;;5014543;28;20681;-79
2020/12/27 03:33:55;;;;;;;19.60;12.43;;;-1.70;90.30;;;;;;5015704;28;20199;-81
2020/12/27 03:36:23;;;;;;;17.83;11.97;;;-1.80;90.40;;;;;;5017746;28;20230;-82
2020/12/27 03:38:51;;;;;;;19.00;11.93;;;-1.80;90.30;;;;;;5016808;28;20787;-83
2020/12/27 03:41:19;;;;;;;20.87;12.13;;;-1.80;90.30;;;;;;5019126;28;20198;-81
2020/12/27 03:43:47;;;;;;;21.57;12.50;;;-1.80;90.40;;;;;;5016951;28;20527;-81
2020/12/27 03:46:15;;;;;;;20.80;12.23;;;-1.80;90.40;;;;;;5002738;28;20321;-79
2020/12/27 03:48:42;;;;;;;20.73;12.90;;;-1.80;90.30;;;;;;5030415;28;20574;-81
2020/12/27 03:51:11;;;;;;;19.57;11.70;;;-1.70;90.40;;;;;;5017779;28;20325;-82
2020/12/27 03:53:39;;;;;;;20.00;12.53;;;-1.70;90.20;;;;;;5020409;28;20232;-80
2020/12/27 03:56:06;;;;;;;21.83;12.07;;;-1.80;90.20;;;;;;5024624;28;20955;-82
2020/12/27 03:58:34;;;;;;;22.57;13.00;;;-1.80;90.20;;;;;;5032022;28;20229;-81
2020/12/27 04:01:01;;;;;;;22.97;13.00;;;-1.80;90.10;;;;;;5032599;28;20202;-82
2020/12/27 04:03:29;;;;;;;24.00;13.20;;;-1.80;90.20;;;;;;5022335;28;20216;-80
2020/12/27 04:05:57;;;;;;;20.83;12.07;;;-1.80;90.20;;;;;;5023925;28;20208;-79
2020/12/27 04:08:25;;;;;;;18.73;12.40;;;-1.70;90.10;;;;;;5044251;28;20198;-82
2020/12/27 04:10:52;;;;;;;19.07;12.03;;;-1.80;90.10;;;;;;5037135;28;20744;-80
2020/12/27 04:13:20;;;;;;;23.97;12.33;;;-1.90;90.00;;;;;;5044678;28;20203;-81
2020/12/27 04:15:48;;;;;;;23.30;11.73;;;-1.90;90.10;;;;;;5030128;28;20327;-81
2020/12/27 04:18:15;;;;;;;20.87;12.33;;;-1.90;90.10;;;;;;5031130;28;20654;-80
2020/12/27 04:20:44;;;;;;;24.13;12.73;;;-1.80;90.00;;;;;;5020118;28;20547;-81
2020/12/27 04:23:11;;;;;;;20.17;11.20;;;-1.90;90.20;;;;;;5033843;28;20207;-81
2020/12/27 04:25:40;;;;;;;21.47;12.43;;;-2.00;90.20;;;;;;5029522;28;20446;-81
2020/12/27 04:28:07;;;;;;;21.30;12.60;;;-2.00;90.10;;;;;;5030758;28;20195;-79
2020/12/27 04:30:35;;;;;;;24.40;12.57;;;-1.90;90.10;;;;;;5031339;28;20204;-80
2020/12/27 04:33:02;;;;;;;22.07;12.70;;;-1.90;90.10;;;;;;5033841;28;20435;-81
2020/12/27 04:35:30;;;;;;;21.70;11.47;;;-1.90;90.10;;;;;;5035715;28;20237;-78
2020/12/27 04:37:57;;;;;;;22.50;12.43;;;-1.90;90.00;;;;;;5032842;28;20618;-79
2020/12/27 04:40:25;;;;;;;18.97;11.50;;;-2.00;90.00;;;;;;5030920;28;20203;-79
2020/12/27 04:42:54;;;;;;;19.13;12.23;;;-2.00;90.00;;;;;;5035595;28;20253;-79
2020/12/27 04:45:22;;;;;;;21.90;12.07;;;-2.10;90.00;;;;;;5032073;28;20780;-77
2020/12/27 04:47:49;;;;;;;22.00;11.87;;;-2.10;90.10;;;;;;5032537;28;20272;-78
2020/12/27 04:50:17;;;;;;;19.77;11.20;;;-2.10;90.10;;;;;;5039313;28;20226;-82
2020/12/27 04:52:45;;;;;;;18.63;11.17;;;-2.10;90.10;;;;;;5033524;28;20693;-81
2020/12/27 04:55:14;;;;;;;22.30;12.43;;;-2.20;90.20;;;;;;5025211;28;20225;-80
2020/12/27 04:57:42;;;;;;;21.27;11.57;;;-2.20;90.30;;;;;;5022493;28;20558;-83
2020/12/27 05:00:10;;;;;;;21.13;12.47;;;-2.20;90.10;;;;;;5023089;28;20198;-79
2020/12/27 05:02:38;;;;;;;20.13;13.00;;;-2.20;90.20;;;;;;5020683;28;20552;-81
2020/12/27 05:05:12;;;;;;;26.20;13.80;;;-2.30;90.20;;;;;;5035481;28;20199;-82
2020/12/27 05:07:43;;;;;;;22.90;13.67;;;-2.30;90.30;;;;;;5041775;28;20190;-79
2020/12/27 05:10:11;;;;;;;24.97;13.43;;;-2.30;90.30;;;;;;5038559;28;20274;-78
2020/12/27 05:12:39;;;;;;;20.63;12.50;;;-2.40;90.30;;;;;;5039636;28;20285;-80
2020/12/27 05:15:07;;;;;;;30.60;14.40;;;-2.40;90.40;;;;;;5039118;28;20280;-79
2020/12/27 05:17:37;;;;;;;22.40;13.50;;;-2.40;90.50;;;;;;5042278;28;20225;-82
2020/12/27 05:20:09;;;;;;;22.97;14.07;;;-2.50;90.40;;;;;;5042851;28;20210;-81
2020/12/27 05:22:37;;;;;;;25.80;13.23;;;-2.50;90.60;;;;;;5041470;28;20214;-80
2020/12/27 05:25:05;;;;;;;25.43;14.00;;;-2.50;90.70;;;;;;5043203;28;20399;-81
2020/12/27 05:27:39;;;;;;;23.37;13.67;;;-2.60;90.70;;;;;;5027920;28;20203;-80
2020/12/27 05:30:07;;;;;;;24.93;14.03;;;-2.60;90.70;;;;;;5022736;28;20203;-79
2020/12/27 05:32:36;;;;;;;24.03;14.67;;;-2.60;90.80;;;;;;5033288;28;20197;-82
2020/12/27 05:35:10;;;;;;;29.60;15.37;;;-2.70;90.80;;;;;;5045621;28;20468;-77
2020/12/27 05:37:39;;;;;;;27.63;15.17;;;-2.70;90.80;;;;;;5043968;28;20232;-81
2020/12/27 05:40:07;;;;;;;29.40;15.57;;;-2.70;90.80;;;;;;5046846;28;20268;-80
2020/12/27 05:42:35;;;;;;;28.63;15.73;;;-2.60;90.90;;;;;;5028274;28;20203;-78
2020/12/27 05:45:13;;;;;;;31.07;16.70;;;-2.60;90.80;;;;;;5021726;28;20207;-79
2020/12/27 05:47:46;;;;;;;29.13;16.40;;;-2.60;90.80;;;;;;5024683;28;20199;-81
2020/12/27 05:50:16;;;;;;;26.97;16.83;;;-2.60;90.70;;;;;;5023888;28;20203;-81
2020/12/27 05:52:45;;;;;;;25.70;15.40;;;-2.60;90.70;;;;;;5022266;28;20241;-81
2020/12/27 05:55:18;;;;;;;28.60;16.60;;;-2.60;90.70;;;;;;5024152;28;20233;-81
2020/12/27 05:57:51;;;;;;;28.60;17.63;;;-2.60;90.70;;;;;;5021338;28;20206;-80
2020/12/27 06:00:23;;;;;;;31.30;16.70;;;-2.50;90.60;;;;;;5005318;28;20522;-81
2020/12/27 06:03:00;;;;;;;34.07;18.13;;;-2.50;90.40;;;;;;5016503;28;20214;-78
2020/12/27 06:06:10;;;;;;;29.27;17.07;;;-2.50;90.30;;;;;;5023463;28;20194;-80
2020/12/27 06:09:05;;;;;;;27.47;17.17;;;-2.50;90.30;;;;;;5009810;28;20199;-79
2020/12/27 06:11:52;;;;;;;28.30;16.97;;;-2.50;90.30;;;;;;5022421;28;20708;-78
2020/12/27 06:14:42;;;;;;;30.43;17.47;;;-2.60;90.20;;;;;;5015908;28;20221;-82
2020/12/27 06:17:12;;;;;;;34.53;18.57;;;-2.60;90.30;;;;;;5032906;28;20234;-81
2020/12/27 06:19:57;;;;;;;34.90;19.73;;;-2.60;90.40;;;;;;5033329;28;20207;-81
2020/12/27 06:22:32;;;;;;;36.23;20.30;;;-2.60;90.40;;;;;;5009442;28;20740;-81
2020/12/27 06:25:01;;;;;;;37.33;19.90;;;-2.60;90.30;;;;;;5028422;28;20194;-78
2020/12/27 06:27:31;;;;;;;37.20;19.70;;;-2.60;90.30;;;;;;5028905;28;20215;-83
2020/12/27 06:30:05;;;;;;;34.97;19.77;;;-2.60;90.30;;;;;;5020224;28;20732;-80
2020/12/27 06:32:38;;;;;;;38.50;20.63;;;-2.60;90.30;;;;;;5025461;28;20206;-81
2020/12/27 06:35:08;;;;;;;35.23;20.50;;;-2.60;90.30;;;;;;5023862;28;20475;-82
2020/12/27 06:37:41;;;;;;;38.87;19.33;;;-2.60;90.30;;;;;;5045376;28;20292;-80
2020/12/27 06:40:08;;;;;;;35.77;20.37;;;-2.60;90.30;;;;;;5019054;28;20895;-80
2020/12/27 06:42:36;;;;;;;37.67;21.23;;;-2.60;90.30;;;;;;5023517;28;20267;-82
2020/12/27 06:45:05;;;;;;;38.23;20.87;;;-2.60;90.30;;;;;;5025927;28;20199;-80
2020/12/27 06:47:47;;;;;;;36.90;19.47;;;-2.60;90.30;;;;;;5026048;28;20681;-79
2020/12/27 06:50:17;;;;;;;34.13;20.50;;;-2.60;90.20;;;;;;5013241;28;20768;-82
2020/12/27 06:52:45;;;;;;;36.60;20.97;;;-2.60;90.20;;;;;;5028159;28;20763;-81
2020/12/27 06:55:32;;;;;;;32.37;19.47;;;-2.60;90.20;;;;;;5029560;28;20238;-80
2020/12/27 06:58:21;;;;;;;37.67;21.50;;;-2.50;90.30;;;;;;5035602;28;20183;-79
2020/12/27 07:01:08;;;;;;;37.73;19.90;;;-2.50;90.20;;;;;;5043204;28;20186;-82
2020/12/27 07:03:36;;;;;;;38.53;21.80;;;-2.50;90.10;;;;;;5044835;28;20194;-80
2020/12/27 07:06:18;;;;;;;36.80;20.77;;;-2.50;90.10;;;;;;5040095;28;20199;-80
2020/12/27 07:09:02;;;;;;;38.50;21.27;;;-2.50;90.10;;;;;;5037119;28;20186;-80
2020/12/27 07:11:31;;;;;;;37.97;20.97;;;-2.40;90.00;;;;;;5043343;28;20179;-80
2020/12/27 07:14:00;;;;;;;33.70;19.90;;;-2.30;90.00;;;;;;5042639;28;20198;-80
2020/12/27 07:16:43;;;;;;;36.20;20.43;;;-2.20;89.80;;;;;;5036030;28;20210;-80
2020/12/27 07:19:15;;;;;;;32.67;21.07;;;-2.20;89.70;;;;;;5050963;28;20515;-79
2020/12/27 07:21:47;;;;;;;34.50;20.60;;;-2.20;89.30;;;;;;5044721;28;20221;-82
2020/12/27 07:24:19;;;;;;;36.10;20.23;;;-2.10;89.20;;;;;;5044559;28;20191;-81
2020/12/27 07:26:47;;;;;;;34.40;20.40;;;-2.10;89.00;;;;;;5048071;28;20217;-83
2020/12/27 07:29:23;;;;;;;35.80;19.93;;;-2.10;89.00;;;;;;5037360;28;20276;-81
2020/12/27 07:31:52;;;;;;;34.30;21.33;;;-2.10;88.90;;;;;;5044985;28;20498;-81
2020/12/27 07:34:24;;;;;;;37.13;21.53;;;-2.00;88.90;;;;;;5046850;28;20202;-81
2020/12/27 07:37:00;;;;;;;32.80;20.27;;;-1.90;88.90;;;;;;5047740;28;20290;-83
2020/12/27 07:39:58;;;;;;;32.13;19.87;;;-1.90;88.70;;;;;;5043044;28;20267;-81
2020/12/27 07:42:27;;;;;;;36.97;20.57;;;-1.80;88.60;;;;;;4965621;28;20276;-81
2020/12/27 07:44:55;;;;;;;35.37;19.07;;;-1.80;88.30;;;;;;5027226;28;20266;-82
2020/12/27 07:47:23;;;;;;;31.43;18.00;;;-1.70;88.10;;;;;;5056372;28;20326;-80
2020/12/27 07:50:08;;;;;;;34.40;20.03;;;-1.70;88.00;;;;;;5047993;28;20222;-81
2020/12/27 07:52:51;;;;;;;33.17;18.50;;;-1.60;87.90;;;;;;5045614;28;20230;-80
2020/12/27 07:55:24;;;;;;;33.70;18.50;;;-1.50;87.60;;;;;;5043620;28;20815;-79
2020/12/27 07:57:52;;;;;;;29.57;17.30;;;-1.50;87.50;;;;;;5045249;28;20203;-80
2020/12/27 08:00:24;;;;;;;30.10;18.07;;;-1.50;87.50;;;;;;5044111;28;20187;-79
2020/12/27 08:02:52;;;;;;;24.43;16.97;;;-1.40;87.20;;;;;;5043700;28;20205;-81
2020/12/27 08:05:20;;;;;;;28.73;17.63;;;-1.30;87.00;;;;;;5045799;28;20356;-83
2020/12/27 08:07:49;;;;;;;29.30;16.40;;;-1.30;86.80;;;;;;5045448;28;20244;-82
2020/12/27 08:10:25;;;;;;;27.73;16.17;;;-1.20;86.70;;;;;;5034552;28;20195;-81
2020/12/27 08:12:55;;;;;;;32.57;15.97;;;-1.00;86.80;;;;;;5049736;28;20847;-82
2020/12/27 08:15:24;;;;;;;29.80;16.10;;;-1.10;86.50;;;;;;5039295;28;20228;-82
2020/12/27 08:18:00;;;;;;;25.37;16.50;;;-1.00;86.30;;;;;;5030894;28;20191;-79
2020/12/27 08:20:30;;;;;;;25.83;16.13;;;-1.00;86.00;;;;;;5034512;28;20207;-79
2020/12/27 08:23:16;;;;;;;27.57;16.30;;;-1.00;86.30;;;;;;5024208;28;20230;-80
2020/12/27 08:25:45;;;;;;;26.47;16.37;;;-0.80;86.30;;;;;;5028622;28;20215;-82
2020/12/27 08:28:15;;;;;;;27.90;17.60;;;-1.00;85.90;;;;;;5047864;28;20214;-79
2020/12/27 08:30:45;;;;;;;26.70;16.33;;;-0.80;85.90;;;;;;5042938;28;20179;-80
2020/12/27 08:33:15;;;;;;;26.47;16.03;;;-0.80;86.00;;;;;;5036871;28;20279;-81
2020/12/27 08:35:45;;;;;;;30.77;18.30;;;-0.70;86.00;;;;;;5031041;28;20272;-80
2020/12/27 08:38:39;;;;;;;27.53;16.60;;;-0.80;85.90;;;;;;5027936;28;20284;-82
2020/12/27 08:41:11;;;;;;;30.17;16.70;;;-0.70;85.80;;;;;;5028257;28;20249;-82
2020/12/27 08:43:59;;;;;;;27.60;17.87;;;-0.70;85.70;;;;;;5049218;28;20698;-80
2020/12/27 08:46:33;;;;;;;30.67;17.87;;;-0.70;85.60;;;;;;5014887;28;20209;-81
2020/12/27 08:49:04;;;;;;;28.93;18.23;;;-0.50;85.70;;;;;;5031803;28;20206;-82
2020/12/27 08:51:51;;;;;;;30.60;17.77;;;-0.60;85.60;;;;;;5026205;28;20241;-81
2020/12/27 08:54:21;;;;;;;30.90;19.10;;;-0.60;85.50;;;;;;5008526;28;20230;-80
2020/12/27 08:56:49;;;;;;;32.17;18.63;;;-0.50;85.60;;;;;;5030149;28;20223;-80
2020/12/27 08:59:17;;;;;;;29.03;16.93;;;-0.40;85.50;;;;;;5023077;28;20282;-80
2020/12/27 09:01:44;;;;;;;29.87;17.37;;;-0.30;85.60;;;;;;5026698;28;20609;-80
2020/12/27 09:04:20;;;;;;;29.60;17.33;;;-0.30;85.40;;;;;;5023535;28;20199;-80
2020/12/27 09:06:54;;;;;;;26.73;17.37;;;-0.30;85.00;;;;;;5022496;28;20194;-82
2020/12/27 09:09:22;;;;;;;31.87;18.63;;;-0.30;85.30;;;;;;5024440;28;20543;-79
2020/12/27 09:11:50;;;;;;;28.80;17.47;;;-0.20;85.20;;;;;;5034286;28;20243;-81
2020/12/27 09:14:33;;;;;;;27.33;16.10;;;-0.20;85.30;;;;;;5030839;28;20200;-81
2020/12/27 09:17:02;;;;;;;28.80;17.37;;;-0.10;85.00;;;;;;5031523;28;20243;-79
2020/12/27 09:19:33;;;;;;;29.77;16.80;;;-0.10;84.90;;;;;;5031319;28;20220;-80
2020/12/27 09:22:06;;;;;;;29.63;18.00;;;0.00;85.00;;;;;;5023778;28;20496;-80
2020/12/27 09:24:34;;;;;;;30.33;18.40;;;0.00;85.00;;;;;;5026155;28;20231;-80
2020/12/27 09:27:10;;;;;;;27.80;16.90;;;0.00;84.60;;;;;;5029301;28;20741;-81
2020/12/27 09:29:39;;;;;;;30.73;18.03;;;0.10;84.70;;;;;;5029160;28;20208;-82
2020/12/27 09:32:09;;;;;;;28.17;16.93;;;0.10;84.80;;;;;;5024611;28;20727;-81
2020/12/27 09:34:37;;;;;;;28.23;17.13;;;0.20;84.80;;;;;;5030317;28;20176;-80
2020/12/27 09:37:15;;;;;;;32.00;17.53;;;0.10;84.50;;;;;;5028917;28;20236;-81
2020/12/27 09:39:45;;;;;;;31.17;17.20;;;0.10;84.50;;;;;;5027671;28;20292;-81
2020/12/27 09:42:23;;;;;;;33.40;17.67;;;0.10;84.40;;;;;;5026591;28;20555;-81
2020/12/27 09:44:51;;;;;;;30.63;17.47;;;0.20;84.50;;;;;;5026003;28;20199;-84
2020/12/27 09:47:26;;;;;;;27.33;17.87;;;0.20;84.60;;;;;;5031484;28;20215;-81
2020/12/27 09:50:06;;;;;;;29.53;17.63;;;0.20;84.50;;;;;;5031938;28;20223;-82
2020/12/27 09:52:44;;;;;;;27.57;16.77;;;0.20;84.50;;;;;;5024659;28;20492;-80
2020/12/27 09:55:12;;;;;;;27.60;16.53;;;0.30;84.40;;;;;;5042418;28;20285;-82
2020/12/27 09:57:41;;;;;;;28.33;16.50;;;0.30;84.00;;;;;;5040593;28;20205;-81
2020/12/27 10:00:09;;;;;;;31.30;18.10;;;0.30;84.20;;;;;;5041148;28;20216;-82
2020/12/27 10:02:36;;;;;;;30.67;17.93;;;0.30;84.10;;;;;;5028487;28;20541;-81
2020/12/27 10:05:09;;;;;;;31.63;17.73;;;0.40;84.30;;;;;;5021665;28;20199;-81
2020/12/27 10:07:37;;;;;;;30.53;18.17;;;0.40;84.10;;;;;;5022090;28;20204;-80
2020/12/27 10:10:05;;;;;;;31.53;18.20;;;0.40;84.20;;;;;;5026282;28;20204;-82
2020/12/27 10:12:34;;;;;;;28.37;17.37;;;0.50;84.60;;;;;;5021394;28;20630;-80
2020/12/27 10:15:03;;;;;;;27.43;15.87;;;0.50;84.00;;;;;;5026521;28;20398;-82
2020/12/27 10:17:30;;;;;;;28.63;17.47;;;0.50;83.90;;;;;;5026337;28;20255;-79
2020/12/27 10:20:00;;;;;;;29.90;17.30;;;0.50;83.90;;;;;;5022536;28;20216;-82
2020/12/27 10:22:28;;;;;;;28.53;16.63;;;0.70;83.80;;;;;;5022947;28;20209;-82
2020/12/27 10:24:55;;;;;;;32.03;17.67;;;0.60;84.10;;;;;;5024278;28;20290;-81
2020/12/27 10:27:24;;;;;;;32.47;18.77;;;0.60;83.90;;;;;;5021281;28;20223;-82
2020/12/27 10:29:53;;;;;;;28.20;16.97;;;0.60;83.90;;;;;;5028154;28;20632;-80
2020/12/27 10:32:20;;;;;;;29.20;16.40;;;0.70;83.80;;;;;;5021446;28;20474;-82
2020/12/27 10:34:48;;;;;;;27.30;16.60;;;0.70;83.60;;;;;;5021952;28;20201;-82
2020/12/27 10:37:15;;;;;;;26.17;16.03;;;0.70;83.60;;;;;;5021612;28;20233;-82
2020/12/27 10:39:42;;;;;;;32.10;17.20;;;0.70;83.60;;;;;;5018843;28;20220;-82
2020/12/27 10:42:10;;;;;;;24.93;15.97;;;0.80;83.40;;;;;;5021168;28;20235;-82
2020/12/27 10:44:38;;;;;;;26.37;16.60;;;0.80;83.60;;;;;;5019571;28;20629;-82
2020/12/27 10:47:08;;;;;;;25.33;16.67;;;0.80;83.60;;;;;;5018991;28;20562;-80
2020/12/27 10:49:36;;;;;;;25.43;16.50;;;0.90;83.30;;;;;;5017393;28;20792;-82
2020/12/27 10:52:04;;;;;;;29.13;16.40;;;0.90;83.30;;;;;;5026518;28;20206;-82
2020/12/27 10:54:31;;;;;;;26.53;17.13;;;0.90;83.20;;;;;;5020913;28;20851;-81
2020/12/27 10:56:59;;;;;;;24.37;15.53;;;0.90;83.30;;;;;;5026946;28;20225;-81
2020/12/27 10:59:26;;;;;;;24.63;15.33;;;1.00;83.20;;;;;;5020559;28;20664;-80
2020/12/27 11:01:54;;;;;;;28.27;16.73;;;1.00;83.40;;;;;;5020203;28;20203;-80
2020/12/27 11:04:22;;;;;;;25.20;14.13;;;1.10;83.10;;;;;;5021248;28;20713;-81
2020/12/27 11:06:50;;;;;;;24.03;14.60;;;1.10;82.90;;;;;;5024578;28;20281;-80
2020/12/27 11:09:18;;;;;;;23.80;14.80;;;1.10;82.90;;;;;;5020018;28;20209;-81
2020/12/27 11:11:45;;;;;;;24.57;15.37;;;1.20;83.20;;;;;;5021718;28;20208;-81
2020/12/27 11:14:13;;;;;;;26.70;14.57;;;1.20;83.00;;;;;;5016226;28;20211;-80
2020/12/27 11:16:40;;;;;;;27.17;15.30;;;1.20;83.00;;;;;;5020348;28;20508;-81
2020/12/27 11:19:08;;;;;;;23.63;13.23;;;1.20;82.90;;;;;;5032979;28;20202;-81
2020/12/27 11:21:36;;;;;;;22.37;13.47;;;1.40;82.70;;;;;;5037779;28;20207;-79
2020/12/27 11:24:04;;;;;;;22.40;13.47;;;1.30;82.50;;;;;;5037738;28;20659;-82
2020/12/27 11:26:32;;;;;;;21.73;13.70;;;1.30;82.50;;;;;;5035862;28;20688;-81
2020/12/27 11:28:59;;;;;;;20.40;12.37;;;1.40;82.30;;;;;;5026334;28;20272;-83
2020/12/27 11:31:26;;;;;;;20.87;12.00;;;1.40;82.00;;;;;;5019504;28;20210;-83
2020/12/27 11:33:54;;;;;;;19.27;12.13;;;1.40;81.80;;;;;;5024317;28;20565;-81
2020/12/27 11:36:21;;;;;;;17.97;12.03;;;1.60;81.80;;;;;;5023554;28;20234;-82
2020/12/27 11:38:52;;;;;;;19.20;12.53;;;1.50;81.50;;;;;;5035487;28;20713;-83
2020/12/27 11:41:20;;;;;;;17.60;12.50;;;1.50;82.00;;;;;;5029373;28;20579;-81
2020/12/27 11:43:47;;;;;;;21.17;13.47;;;1.50;82.00;;;;;;5026873;28;20701;-80
2020/12/27 11:46:15;;;;;;;23.30;11.93;;;1.60;82.00;;;;;;5036128;28;20187;-81
2020/12/27 11:48:43;;;;;;;19.73;12.70;;;1.50;81.90;;;;;;5024597;28;20207;-82
2020/12/27 11:51:12;;;;;;;20.13;12.43;;;1.60;82.00;;;;;;5023289;28;20782;-82
2020/12/27 11:53:53;;;;;;;19.23;12.20;;;1.60;82.10;;;;;;5029395;28;20198;-80
2020/12/27 11:56:21;;;;;;;22.07;12.23;;;1.60;82.00;;;;;;5030857;28;20276;-83
2020/12/27 11:58:48;;;;;;;17.43;10.80;;;1.60;82.10;;;;;;5023026;28;20199;-82
2020/12/27 12:01:17;;;;;;;19.40;10.43;;;1.60;81.30;;;;;;5034089;28;20292;-82
2020/12/27 12:03:44;;;;;;;17.67;10.03;;;1.60;81.20;;;;;;5037098;28;20668;-81
2020/12/27 12:06:14;;;;;;;19.30;11.23;;;1.60;81.40;;;;;;5038568;28;20229;-80
2020/12/27 12:08:43;;;;;;;16.13;10.50;;;1.60;81.80;;;;;;5034953;28;20658;-82
2020/12/27 12:11:12;;;;;;;18.90;11.63;;;1.60;81.80;;;;;;5036858;28;20224;-82
2020/12/27 12:13:39;;;;;;;18.93;10.70;;;1.60;81.70;;;;;;5034487;28;20203;-81
2020/12/27 12:16:07;;;;;;;17.40;11.03;;;1.50;81.90;;;;;;5041901;28;20443;-81
2020/12/27 12:18:36;;;;;;;16.93;11.37;;;1.50;82.10;;;;;;5023879;28;20198;-82
2020/12/27 12:21:04;;;;;;;17.63;11.13;;;1.50;82.30;;;;;;5033984;28;20739;-83
2020/12/27 12:23:32;;;;;;;20.30;11.07;;;1.50;82.50;;;;;;5030404;28;20203;-84
2020/12/27 12:26:01;;;;;;;18.37;11.10;;;1.50;82.40;;;;;;5028312;28;20665;-83
2020/12/27 12:28:29;;;;;;;15.80;9.87;;;1.40;82.60;;;;;;5025666;28;20290;-82
2020/12/27 12:30:58;;;;;;;18.27;11.33;;;1.40;82.50;;;;;;5023912;28;20232;-80
2020/12/27 12:33:26;;;;;;;18.60;10.27;;;1.40;82.20;;;;;;5028734;28;20286;-79
2020/12/27 12:35:53;;;;;;;17.43;10.40;;;1.40;82.30;;;;;;5023022;28;20213;-80
2020/12/27 12:38:21;;;;;;;14.60;8.90;;;1.40;82.30;;;;;;5023288;28;20218;-80
2020/12/27 12:40:51;;;;;;;18.73;10.70;;;1.40;82.30;;;;;;5022919;28;20230;-81
2020/12/27 12:43:19;;;;;;;16.63;10.37;;;1.40;82.30;;;;;;5022813;28;20218;-82
2020/12/27 12:45:47;;;;;;;16.93;10.23;;;1.40;82.50;;;;;;5023775;28;20207;-81
2020/12/27 12:48:15;;;;;;;13.87;10.17;;;1.30;82.50;;;;;;5050569;28;20407;-81